createdAt,value
2019-04-01T00:02:14.257Z,34.92
2019-04-01T00:04:42.532Z,33.33
2019-04-01T00:07:10.776Z,32.60
2019-04-01T00:09:39.052Z,30.45
2019-04-01T00:12:07.305Z,33.25
2019-04-01T00:14:35.578Z,30.90
2019-04-01T00:17:04.689Z,30.37
2019-04-01T00:19:32.961Z,30.68
2019-04-01T00:22:01.225Z,29.30
2019-04-01T00:24:29.478Z,29.80
2019-04-01T00:26:57.750Z,28.90
2019-04-01T00:29:26.025Z,27.50
2019-04-01T00:31:54.466Z,27.55
2019-04-01T00:34:22.993Z,27.10
2019-04-01T00:36:51.314Z,27.20
2019-04-01T00:39:19.576Z,25.60
2019-04-01T00:41:52.418Z,25.35
2019-04-01T00:44:20.939Z,25.55
2019-04-01T00:46:49.185Z,25.17
2019-04-01T00:49:17.438Z,24.05
2019-04-01T00:51:45.708Z,23.15
2019-04-01T00:54:14.213Z,21.80
2019-04-01T00:56:42.493Z,21.68
2019-04-01T00:59:10.750Z,21.50
2019-04-01T01:01:39.005Z,20.65
2019-04-01T01:04:07.267Z,21.00
2019-04-01T01:06:35.782Z,20.55
2019-04-01T01:09:05.474Z,19.80
2019-04-01T01:11:33.793Z,19.35
2019-04-01T01:14:02.066Z,19.70
2019-04-01T01:16:30.320Z,19.42
2019-04-01T01:18:58.594Z,17.37
2019-04-01T01:21:26.854Z,18.67
2019-04-01T01:23:55.119Z,17.42
2019-04-01T01:26:23.388Z,16.60
2019-04-01T01:28:51.899Z,15.83
2019-04-01T01:31:20.145Z,15.55
2019-04-01T01:33:48.668Z,15.10
2019-04-01T01:36:16.909Z,14.53
2019-04-01T01:38:45.176Z,14.20
2019-04-01T01:41:13.424Z,14.03
2019-04-01T01:43:41.697Z,12.90
2019-04-01T01:46:10.193Z,12.58
2019-04-01T01:48:38.473Z,12.68
2019-04-01T01:51:06.897Z,12.35
2019-04-01T01:53:35.156Z,11.97
2019-04-01T01:56:03.421Z,11.25
2019-04-01T01:58:31.678Z,11.55
2019-04-01T02:00:59.952Z,11.05
2019-04-01T02:03:28.206Z,10.63
2019-04-01T02:05:56.481Z,9.90
2019-04-01T02:08:24.753Z,10.08
2019-04-01T02:10:52.997Z,9.25
2019-04-01T02:13:21.290Z,9.58
2019-04-01T02:15:49.537Z,9.13
2019-04-01T02:18:17.860Z,9.05
2019-04-01T02:20:46.128Z,8.33
2019-04-01T02:23:14.397Z,8.10
2019-04-01T02:25:42.669Z,8.05
2019-04-01T02:28:10.937Z,7.65
2019-04-01T02:30:39.428Z,7.42
2019-04-01T02:33:07.697Z,7.00
2019-04-01T02:35:35.937Z,6.90
2019-04-01T02:38:04.397Z,6.70
2019-04-01T02:40:33.305Z,6.50
2019-04-01T02:43:01.570Z,6.42
2019-04-01T02:45:29.824Z,6.55
2019-04-01T02:47:58.154Z,6.25
2019-04-01T02:50:26.400Z,5.80
2019-04-01T02:52:54.658Z,5.80
2019-04-01T02:55:22.906Z,5.78
2019-04-01T02:57:51.170Z,5.40
2019-04-01T03:00:19.424Z,5.20
2019-04-01T03:02:47.947Z,4.83
2019-04-01T03:05:16.190Z,4.70
2019-04-01T03:07:44.494Z,4.90
2019-04-01T03:10:12.757Z,4.42
2019-04-01T03:12:41.356Z,4.40
2019-04-01T03:15:09.621Z,4.50
2019-04-01T03:17:37.929Z,4.47
2019-04-01T03:20:07.137Z,4.40
2019-04-01T03:22:35.504Z,3.98
2019-04-01T03:25:04.447Z,3.55
2019-04-01T03:27:32.688Z,3.80
2019-04-01T03:30:00.977Z,3.95
2019-04-01T03:32:29.533Z,3.67
2019-04-01T03:34:57.872Z,3.70
2019-04-01T03:37:26.387Z,3.50
2019-04-01T03:39:54.956Z,3.20
2019-04-01T03:42:23.205Z,3.00
2019-04-01T03:44:55.176Z,3.30
2019-04-01T03:47:21.841Z,2.70
2019-04-01T03:49:50.094Z,3.10
2019-04-01T03:52:18.357Z,2.70
2019-04-01T03:54:46.605Z,2.70
2019-04-01T03:57:14.858Z,2.80
2019-04-01T03:59:43.117Z,2.98
2019-04-01T04:02:11.392Z,2.70
2019-04-01T04:04:39.961Z,2.40
2019-04-01T04:07:08.269Z,2.52
2019-04-01T04:09:36.540Z,2.60
2019-04-01T04:12:04.810Z,2.37
2019-04-01T04:14:33.054Z,2.42
2019-04-01T04:17:01.322Z,2.15
2019-04-01T04:19:29.569Z,2.02
2019-04-01T04:21:57.815Z,2.17
2019-04-01T04:24:26.094Z,2.00
2019-04-01T04:26:54.585Z,2.33
2019-04-01T04:29:22.857Z,1.80
2019-04-01T04:31:51.112Z,2.00
2019-04-01T04:34:19.385Z,2.22
2019-04-01T04:36:47.631Z,2.10
2019-04-01T04:39:15.893Z,2.00
2019-04-01T04:41:44.158Z,1.90
2019-04-01T04:44:12.429Z,1.82
2019-04-01T04:46:40.689Z,1.90
2019-04-01T04:49:09.045Z,1.75
2019-04-01T04:51:37.285Z,1.82
2019-04-01T04:54:05.563Z,1.70
2019-04-01T04:56:33.832Z,1.63
2019-04-01T04:59:02.322Z,1.80
2019-04-01T05:01:30.588Z,1.52
2019-04-01T05:03:58.849Z,1.95
2019-04-01T05:06:27.334Z,1.70
2019-04-01T05:08:55.666Z,1.87
2019-04-01T05:11:23.933Z,1.55
2019-04-01T05:13:52.179Z,1.70
2019-04-01T05:16:20.427Z,1.70
2019-04-01T05:18:48.689Z,1.70
2019-04-01T05:21:16.965Z,1.52
2019-04-01T05:23:45.492Z,1.70
2019-04-01T05:26:13.741Z,1.50
2019-04-01T05:28:42.262Z,1.70
2019-04-01T05:31:10.549Z,1.55
2019-04-01T05:33:38.794Z,1.63
2019-04-01T05:36:07.061Z,1.60
2019-04-01T05:38:35.307Z,1.42
2019-04-01T05:41:04.132Z,1.32
2019-04-01T05:43:32.389Z,1.60
2019-04-01T05:46:00.652Z,1.50
2019-04-01T05:48:30.664Z,1.50
2019-04-01T05:50:58.944Z,1.55
2019-04-01T05:53:27.184Z,1.50
2019-04-01T05:55:55.470Z,1.50
2019-04-01T05:58:23.804Z,1.40
2019-04-01T06:00:53.921Z,1.42
2019-04-01T06:03:22.201Z,1.27
2019-04-01T06:05:50.444Z,1.60
2019-04-01T06:08:18.924Z,1.40
2019-04-01T06:10:47.189Z,1.27
2019-04-01T06:13:15.520Z,1.40
2019-04-01T06:15:43.788Z,1.55
2019-04-01T06:18:12.041Z,1.40
2019-04-01T06:20:40.311Z,1.60
2019-04-01T06:23:08.553Z,1.27
2019-04-01T06:25:36.818Z,1.50
2019-04-01T06:28:05.074Z,1.43
2019-04-01T06:30:33.420Z,1.47
2019-04-01T06:33:01.659Z,1.27
2019-04-01T06:35:29.926Z,1.62
2019-04-01T06:37:58.160Z,1.50
2019-04-01T06:40:26.449Z,1.20
2019-04-01T06:42:54.716Z,1.23
2019-04-01T06:45:22.959Z,1.52
2019-04-01T06:47:51.237Z,1.50
2019-04-01T06:50:19.481Z,1.50
2019-04-01T06:52:47.728Z,1.40
2019-04-01T06:55:15.983Z,1.47
2019-04-01T06:57:44.479Z,1.20
2019-04-01T07:00:12.793Z,1.42
2019-04-01T07:02:41.061Z,1.37
2019-04-01T07:05:12.427Z,1.27
2019-04-01T07:07:39.840Z,1.50
2019-04-01T07:10:08.334Z,1.60
2019-04-01T07:12:36.857Z,1.40
2019-04-01T07:15:06.489Z,1.47
2019-04-01T07:17:34.770Z,1.12
2019-04-01T07:20:03.261Z,1.35
2019-04-01T07:22:31.746Z,1.30
2019-04-01T07:25:00.459Z,1.10
2019-04-01T07:27:28.780Z,1.50
2019-04-01T07:29:57.309Z,1.30
2019-04-01T07:32:25.565Z,1.33
2019-04-01T07:34:54.061Z,1.20
2019-04-01T07:37:22.328Z,1.40
2019-04-01T07:39:50.687Z,1.37
2019-04-01T07:42:18.952Z,1.20
2019-04-01T07:44:47.192Z,1.30
2019-04-01T07:47:15.697Z,1.22
2019-04-01T07:49:43.964Z,1.40
2019-04-01T07:52:12.225Z,1.27
2019-04-01T07:54:40.881Z,1.40
2019-04-01T07:57:09.142Z,1.40
2019-04-01T07:59:37.389Z,1.37
2019-04-01T08:02:05.649Z,1.40
2019-04-01T08:04:34.130Z,1.53
2019-04-01T08:07:02.397Z,1.27
2019-04-01T08:09:30.665Z,1.22
2019-04-01T08:11:58.975Z,1.37
2019-04-01T08:14:27.592Z,1.50
2019-04-01T08:16:58.452Z,1.30
2019-04-01T08:19:25.823Z,1.40
2019-04-01T08:21:54.061Z,1.10
2019-04-01T08:24:22.329Z,1.20
2019-04-01T08:26:50.599Z,1.33
2019-04-01T08:29:30.187Z,1.10
2019-04-01T08:31:49.072Z,1.40
2019-04-01T08:34:17.313Z,1.40
2019-04-01T08:36:45.607Z,1.53
2019-04-01T08:39:14.258Z,1.40
2019-04-01T08:41:42.501Z,1.32
2019-04-01T08:44:10.760Z,1.43
2019-04-01T08:46:39.254Z,1.20
2019-04-01T08:49:08.060Z,1.10
2019-04-01T08:51:36.576Z,1.25
2019-04-01T08:54:04.837Z,1.30
2019-04-01T08:56:37.856Z,1.30
2019-04-01T08:59:03.245Z,1.10
2019-04-01T09:01:35.352Z,1.35
2019-04-01T09:04:01.706Z,1.33
2019-04-01T09:06:31.447Z,1.07
2019-04-01T09:08:59.824Z,1.30
2019-04-01T09:11:28.531Z,1.30
2019-04-01T09:13:56.794Z,1.10
2019-04-01T09:16:25.052Z,1.20
2019-04-01T09:18:53.321Z,1.10
2019-04-01T09:21:21.575Z,1.20
2019-04-01T09:23:52.098Z,1.22
2019-04-01T09:26:19.817Z,1.30
2019-04-01T09:28:48.048Z,0.95
2019-04-01T09:31:16.322Z,1.50
2019-04-01T09:33:44.567Z,1.17
2019-04-01T09:36:12.811Z,1.10
2019-04-01T09:38:41.087Z,1.10
2019-04-01T09:41:13.007Z,1.20
2019-04-01T09:43:39.386Z,1.20
2019-04-01T09:46:07.654Z,1.30
2019-04-01T09:48:35.897Z,1.20
2019-04-01T09:51:04.169Z,1.15
2019-04-01T09:53:32.416Z,1.13
2019-04-01T09:56:00.688Z,1.20
2019-04-01T09:58:28.934Z,1.07
2019-04-01T10:00:57.185Z,1.40
2019-04-01T10:03:25.685Z,1.30
2019-04-01T10:05:53.944Z,1.12
2019-04-01T10:08:22.379Z,1.40
2019-04-01T10:10:50.681Z,1.30
2019-04-01T10:13:18.944Z,1.40
2019-04-01T10:15:47.188Z,1.10
2019-04-01T10:18:15.444Z,1.30
2019-04-01T10:20:43.829Z,1.20
2019-04-01T10:23:12.094Z,1.20
2019-04-01T10:25:40.341Z,1.20
2019-04-01T10:28:08.600Z,1.17
2019-04-01T10:30:36.937Z,1.25
2019-04-01T10:33:05.235Z,1.30
2019-04-01T10:35:33.488Z,1.22
2019-04-01T10:38:01.986Z,1.40
2019-04-01T10:40:30.254Z,1.10
2019-04-01T10:42:58.497Z,1.20
2019-04-01T10:45:26.792Z,1.30
2019-04-01T10:47:55.351Z,1.10
2019-04-01T10:50:23.886Z,1.50
2019-04-01T10:52:52.508Z,1.00
2019-04-01T10:55:20.842Z,1.37
2019-04-01T10:57:49.175Z,1.10
2019-04-01T11:00:17.569Z,1.40
2019-04-01T11:02:49.718Z,1.03
2019-04-01T11:05:16.428Z,1.50
2019-04-01T11:07:44.761Z,1.07
2019-04-01T11:10:13.040Z,1.20
2019-04-01T11:12:41.289Z,1.13
2019-04-01T11:15:09.537Z,1.00
2019-04-01T11:17:37.937Z,1.40
2019-04-01T11:20:07.997Z,1.10
2019-04-01T11:22:36.450Z,1.20
2019-04-01T11:25:09.342Z,1.22
2019-04-01T11:27:37.676Z,1.35
2019-04-01T11:30:07.806Z,1.30
2019-04-01T11:32:36.602Z,1.30
2019-04-01T11:35:06.155Z,1.12
2019-04-01T11:37:34.511Z,1.22
2019-04-01T11:40:03.756Z,1.20
2019-04-01T11:42:31.997Z,1.15
2019-04-01T11:45:00.373Z,1.20
2019-04-01T11:47:28.690Z,1.00
2019-04-01T11:49:57.138Z,1.00
2019-04-01T11:52:25.659Z,1.25
2019-04-01T11:54:53.912Z,1.20
2019-04-01T11:57:22.255Z,1.20
2019-04-01T11:59:50.506Z,1.13
2019-04-01T12:02:18.768Z,1.40
2019-04-01T12:04:47.033Z,1.05
2019-04-01T12:07:15.298Z,1.30
2019-04-01T12:09:43.609Z,1.50
2019-04-01T12:12:22.735Z,1.27
2019-04-01T12:14:41.846Z,1.10
2019-04-01T12:17:10.105Z,1.10
2019-04-01T12:19:38.400Z,1.02
2019-04-01T12:22:06.626Z,1.27
2019-04-01T12:24:34.971Z,1.27
2019-04-01T12:27:03.229Z,1.37
2019-04-01T12:29:31.524Z,1.10
2019-04-01T12:32:00.087Z,1.10
2019-04-01T12:34:28.573Z,1.20
2019-04-01T12:36:56.843Z,1.13
2019-04-01T12:39:25.096Z,1.00
2019-04-01T12:41:53.346Z,1.20
2019-04-01T12:44:21.601Z,1.20
2019-04-01T12:46:49.850Z,1.27
2019-04-01T12:49:18.117Z,1.20
2019-04-01T12:51:46.381Z,1.00
2019-04-01T12:54:15.365Z,1.10
2019-04-01T12:56:44.161Z,1.20
2019-04-01T12:59:12.622Z,1.00
2019-04-01T13:01:40.900Z,1.10
2019-04-01T13:04:10.002Z,1.07
2019-04-01T13:06:38.850Z,1.07
2019-04-01T13:09:07.714Z,1.17
2019-04-01T13:11:36.457Z,0.95
2019-04-01T13:14:05.120Z,1.47
2019-04-01T13:16:34.288Z,1.27
2019-04-01T13:19:02.706Z,1.25
2019-04-01T13:21:34.422Z,1.20
2019-04-01T13:24:01.011Z,1.10
2019-04-01T13:26:29.278Z,1.45
2019-04-01T13:28:57.638Z,1.30
2019-04-01T13:31:25.916Z,1.40
2019-04-01T13:33:54.174Z,1.05
2019-04-01T13:36:22.439Z,1.20
2019-04-01T13:38:50.698Z,1.42
2019-04-01T13:41:19.232Z,1.60
2019-04-01T13:43:47.483Z,2.10
2019-04-01T13:46:15.724Z,1.77
2019-04-01T13:48:56.871Z,1.72
2019-04-01T13:51:13.977Z,2.02
2019-04-01T13:53:42.393Z,1.80
2019-04-01T13:56:12.489Z,2.08
2019-04-01T13:58:40.668Z,1.45
2019-04-01T14:01:08.927Z,1.35
2019-04-01T14:03:37.208Z,1.60
2019-04-01T14:06:05.474Z,1.55
2019-04-01T14:08:33.721Z,1.47
2019-04-01T14:11:05.680Z,1.50
2019-04-01T14:13:31.982Z,1.50
2019-04-01T14:16:00.217Z,1.90
2019-04-01T14:18:28.497Z,1.35
2019-04-01T14:20:56.741Z,1.42
2019-04-01T14:23:25.052Z,1.52
2019-04-01T14:25:53.328Z,1.60
2019-04-01T14:28:21.588Z,1.20
2019-04-01T14:30:49.941Z,1.40
2019-04-01T14:33:18.245Z,1.45
2019-04-01T14:35:46.520Z,1.30
2019-04-01T14:38:14.997Z,1.30
2019-04-01T14:40:43.266Z,1.52
2019-04-01T14:43:11.769Z,1.35
2019-04-01T14:45:40.288Z,1.50
2019-04-01T14:48:08.973Z,1.20
2019-04-01T14:50:37.241Z,1.60
2019-04-01T14:53:05.490Z,1.20
2019-04-01T14:55:33.728Z,1.30
2019-04-01T14:58:01.988Z,1.27
2019-04-01T15:00:30.241Z,1.40
2019-04-01T15:02:58.525Z,1.35
2019-04-01T15:05:26.764Z,1.20
2019-04-01T15:07:55.040Z,1.32
2019-04-01T15:10:23.547Z,1.25
2019-04-01T15:13:04.470Z,1.40
2019-04-01T15:15:21.766Z,1.40
2019-04-01T15:17:50.291Z,1.20
2019-04-01T15:20:18.597Z,1.30
2019-04-01T15:22:46.881Z,1.00
2019-04-01T15:25:15.372Z,1.25
2019-04-01T15:27:43.653Z,1.17
2019-04-01T15:30:14.167Z,1.30
2019-04-01T15:32:42.348Z,1.20
2019-04-01T15:35:10.793Z,1.45
2019-04-01T15:37:39.061Z,1.20
2019-04-01T15:40:07.336Z,1.40
2019-04-01T15:42:35.645Z,1.32
2019-04-01T15:45:06.204Z,1.30
2019-04-01T15:47:34.826Z,1.30
2019-04-01T15:50:03.138Z,1.35
2019-04-01T15:52:31.401Z,1.27
2019-04-01T15:54:59.664Z,1.30
2019-04-01T15:57:27.938Z,1.00
2019-04-01T15:59:56.179Z,1.20
2019-04-01T16:02:24.452Z,1.12
2019-04-01T16:04:52.721Z,1.07
2019-04-01T16:07:22.389Z,1.10
2019-04-01T16:09:51.859Z,0.90
2019-04-01T16:12:20.241Z,1.32
2019-04-01T16:14:48.490Z,1.03
2019-04-01T16:17:16.805Z,1.00
2019-04-01T16:19:45.092Z,1.05
2019-04-01T16:22:13.340Z,1.20
2019-04-01T16:24:41.599Z,1.20
2019-04-01T16:27:09.842Z,1.20
2019-04-01T16:29:38.109Z,0.97
2019-04-01T16:32:06.364Z,1.07
2019-04-01T16:34:34.852Z,1.20
2019-04-01T16:37:03.382Z,1.25
2019-04-01T16:39:31.673Z,1.00
2019-04-01T16:41:59.989Z,1.40
2019-04-01T16:44:28.477Z,1.05
2019-04-01T16:46:56.737Z,1.30
2019-04-01T16:49:25.217Z,1.07
2019-04-01T16:51:53.490Z,1.17
2019-04-01T16:54:22.000Z,1.30
2019-04-01T16:56:50.246Z,1.00
2019-04-01T16:59:18.513Z,1.10
2019-04-01T17:01:46.753Z,1.00
2019-04-01T17:04:15.014Z,1.00
2019-04-01T17:06:43.934Z,1.23
2019-04-01T17:09:12.508Z,1.10
2019-04-01T17:11:40.749Z,1.10
2019-04-01T17:14:09.569Z,1.10
2019-04-01T17:16:37.930Z,0.90
2019-04-01T17:19:06.202Z,1.23
2019-04-01T17:21:34.446Z,1.00
2019-04-01T17:24:02.713Z,0.90
2019-04-01T17:26:30.981Z,1.10
2019-04-01T17:28:59.225Z,0.88
2019-04-01T17:31:27.492Z,1.10
2019-04-01T17:33:55.733Z,1.10
2019-04-01T17:36:24.006Z,1.20
2019-04-01T17:38:52.332Z,1.10
2019-04-01T17:41:20.669Z,0.90
2019-04-01T17:43:48.914Z,1.03
2019-04-01T17:46:17.474Z,1.30
2019-04-01T17:48:45.965Z,0.90
2019-04-01T17:51:14.223Z,1.10
2019-04-01T17:53:42.489Z,0.90
2019-04-01T17:56:10.755Z,1.00
2019-04-01T17:58:38.997Z,1.03
2019-04-01T18:01:07.246Z,1.10
2019-04-01T18:03:35.510Z,0.90
2019-04-01T18:06:03.755Z,1.10
2019-04-01T18:08:32.016Z,0.90
2019-04-01T18:11:00.501Z,1.00
2019-04-01T18:13:28.780Z,1.00
2019-04-01T18:15:57.655Z,1.00
2019-04-01T18:18:27.403Z,1.13
2019-04-01T18:20:56.001Z,1.40
2019-04-01T18:23:24.287Z,1.40
2019-04-01T18:25:53.692Z,1.30
2019-04-01T18:28:21.971Z,1.30
2019-04-01T18:30:50.209Z,1.13
2019-04-01T18:33:19.901Z,1.20
2019-04-01T18:35:48.332Z,1.20
2019-04-01T18:38:17.267Z,1.10
2019-04-01T18:40:45.857Z,1.10
2019-04-01T18:43:14.149Z,1.00
2019-04-01T18:45:42.410Z,1.40
2019-04-01T18:48:10.685Z,1.20
2019-04-01T18:50:38.952Z,1.20
2019-04-01T18:53:07.779Z,1.00
2019-04-01T18:55:36.100Z,1.10
2019-04-01T18:58:04.369Z,1.00
2019-04-01T19:00:32.648Z,1.20
2019-04-01T19:03:00.939Z,1.00
2019-04-01T19:05:29.205Z,1.10
2019-04-01T19:07:57.497Z,1.27
2019-04-01T19:10:25.798Z,1.00
2019-04-01T19:13:05.274Z,1.00
2019-04-01T19:15:24.755Z,1.10
2019-04-01T19:17:53.900Z,1.33
2019-04-01T19:20:22.192Z,0.97
2019-04-01T19:22:50.449Z,1.00
2019-04-01T19:25:18.701Z,1.10
2019-04-01T19:27:47.225Z,1.20
2019-04-01T19:30:15.496Z,1.03
2019-04-01T19:32:43.765Z,1.30
2019-04-01T19:35:12.481Z,1.00
2019-04-01T19:37:40.749Z,1.03
2019-04-01T19:40:09.015Z,0.97
2019-04-01T19:42:39.487Z,1.00
2019-04-01T19:45:07.254Z,1.20
2019-04-01T19:47:35.517Z,1.10
2019-04-01T19:50:06.022Z,1.20
2019-04-01T19:52:34.507Z,1.20
2019-04-01T19:55:03.456Z,1.10
2019-04-01T19:57:31.994Z,0.90
2019-04-01T20:00:00.237Z,1.10
2019-04-01T20:02:28.745Z,1.20
2019-04-01T20:04:57.021Z,1.10
2019-04-01T20:07:25.737Z,1.13
2019-04-01T20:09:53.987Z,1.00
2019-04-01T20:12:22.248Z,1.10
2019-04-01T20:14:50.493Z,1.00
2019-04-01T20:17:18.766Z,1.10
2019-04-01T20:19:47.259Z,1.10
2019-04-01T20:22:15.518Z,1.07
2019-04-01T20:24:43.769Z,1.10
2019-04-01T20:27:12.037Z,1.00
2019-04-01T20:29:40.595Z,1.00
2019-04-01T20:32:17.233Z,1.00
2019-04-01T20:34:38.801Z,0.90
2019-04-01T20:37:07.041Z,1.00
2019-04-01T20:39:35.313Z,1.10
2019-04-01T20:42:03.586Z,1.10
2019-04-01T20:44:31.846Z,1.10
2019-04-01T20:47:00.326Z,1.10
2019-04-01T20:49:29.361Z,0.97
2019-04-01T20:51:58.517Z,0.90
2019-04-01T20:54:26.784Z,1.00
2019-04-01T20:56:55.032Z,1.00
2019-04-01T20:59:23.313Z,1.00
2019-04-01T21:01:51.568Z,1.00
2019-04-01T21:04:19.843Z,1.13
2019-04-01T21:06:48.085Z,1.20
2019-04-01T21:09:16.713Z,1.10
2019-04-01T21:11:44.958Z,1.00
2019-04-01T21:14:13.218Z,0.93
2019-04-01T21:16:41.736Z,1.10
2019-04-01T21:19:09.974Z,1.27
2019-04-01T21:21:39.447Z,1.20
2019-04-01T21:24:08.019Z,1.13
2019-04-01T21:26:36.286Z,1.10
2019-04-01T21:29:04.541Z,1.10
2019-04-01T21:31:32.796Z,1.17
2019-04-01T21:34:01.290Z,1.10
2019-04-01T21:36:29.558Z,1.07
2019-04-01T21:38:57.793Z,1.00
2019-04-01T21:41:26.074Z,1.20
2019-04-01T21:43:54.337Z,1.20
2019-04-01T21:46:22.605Z,1.00
2019-04-01T21:48:50.849Z,1.00
2019-04-01T21:51:19.122Z,1.50
2019-04-01T21:53:47.359Z,1.20
2019-04-01T21:56:15.620Z,1.10
2019-04-01T21:58:43.864Z,1.20
2019-04-01T22:01:14.223Z,1.00
2019-04-01T22:03:42.572Z,1.10
2019-04-01T22:06:11.861Z,1.20
2019-04-01T22:08:40.257Z,1.20
2019-04-01T22:11:08.544Z,0.90
2019-04-01T22:13:36.800Z,1.17
2019-04-01T22:16:05.041Z,1.10
2019-04-01T22:18:33.305Z,1.07
2019-04-01T22:21:01.551Z,0.90
2019-04-01T22:23:30.065Z,1.10
2019-04-01T22:25:59.054Z,0.97
2019-04-01T22:28:27.889Z,1.00
2019-04-01T22:30:56.166Z,1.20
2019-04-01T22:33:24.409Z,1.10
2019-04-01T22:35:52.674Z,1.20
2019-04-01T22:38:25.185Z,0.83
2019-04-01T22:40:50.927Z,1.20
2019-04-01T22:43:19.189Z,1.10
2019-04-01T22:45:49.097Z,1.30
2019-04-01T22:48:17.493Z,1.20
2019-04-01T22:50:45.995Z,1.20
2019-04-01T22:53:14.264Z,1.10
2019-04-01T22:55:42.771Z,1.00
2019-04-01T22:58:11.033Z,1.13
2019-04-01T23:00:39.277Z,0.90
2019-04-01T23:03:07.617Z,1.17
2019-04-01T23:05:37.179Z,1.07
2019-04-01T23:08:05.641Z,1.20
2019-04-01T23:10:34.063Z,1.00
2019-04-01T23:13:02.582Z,1.10
2019-04-01T23:15:30.829Z,0.90
2019-04-01T23:17:59.068Z,1.00
2019-04-01T23:20:27.350Z,0.90
2019-04-01T23:22:55.580Z,1.00
2019-04-01T23:25:23.850Z,1.33
2019-04-01T23:27:52.093Z,1.10
2019-04-01T23:30:20.873Z,1.00
2019-04-01T23:32:49.122Z,1.00
2019-04-01T23:35:17.392Z,1.17
2019-04-01T23:37:45.641Z,1.10
2019-04-01T23:40:13.913Z,1.10
2019-04-01T23:42:42.422Z,1.03
2019-04-01T23:45:10.698Z,1.10
2019-04-01T23:47:38.943Z,1.10
2019-04-01T23:50:09.134Z,0.93
2019-04-01T23:52:37.634Z,1.00
2019-04-01T23:55:06.285Z,1.27
2019-04-01T23:57:34.562Z,1.20
